createdAt,value
2019-01-28T00:25:48.929Z,97.70
2019-01-28T00:55:52.389Z,97.70
2019-01-28T01:25:55.847Z,97.20
2019-01-28T01:55:59.449Z,96.80
2019-01-28T02:26:02.909Z,97.30
2019-01-28T02:56:06.393Z,97.70
2019-01-28T03:26:09.854Z,97.00
2019-01-28T03:56:13.306Z,97.00
2019-01-28T04:26:16.841Z,96.90
2019-01-28T04:56:20.491Z,96.30
2019-01-28T05:26:25.445Z,95.80
2019-01-28T05:56:29.022Z,95.90
2019-01-28T06:26:32.477Z,95.90
2019-01-28T06:56:35.940Z,96.20
2019-01-28T07:26:39.456Z,96.10
2019-01-28T07:56:42.908Z,95.90
2019-01-28T08:26:46.357Z,96.00
2019-01-28T08:56:49.837Z,95.80
2019-01-28T09:26:53.296Z,95.30
2019-01-28T09:56:56.750Z,95.00
2019-01-28T10:27:00.204Z,95.10
2019-01-28T10:57:03.766Z,94.80
2019-01-28T11:27:07.365Z,94.60
2019-01-28T11:57:11.128Z,94.60
2019-01-28T12:27:14.604Z,93.70
2019-01-28T12:57:18.767Z,93.80
2019-01-28T13:27:22.687Z,94.50
2019-01-28T13:57:26.188Z,95.00
2019-01-28T14:27:29.673Z,95.00
2019-01-28T14:57:33.421Z,95.80
2019-01-28T15:27:36.913Z,96.70
2019-01-28T15:57:40.460Z,98.20
2019-01-28T16:27:44.372Z,98.90
2019-01-28T16:57:47.848Z,99.70
2019-01-28T17:27:51.345Z,99.90
2019-01-28T17:57:55.058Z,99.90
2019-01-28T18:58:29.138Z,99.90
2019-01-28T19:28:32.698Z,99.90
2019-01-28T19:58:36.169Z,99.90
2019-01-28T20:28:39.822Z,99.90
2019-01-28T20:58:43.319Z,99.90
2019-01-28T21:28:46.766Z,99.90
2019-01-28T21:58:50.852Z,99.90
2019-01-28T22:28:54.335Z,99.90
2019-01-28T22:58:58.089Z,99.90
2019-01-28T23:29:01.696Z,99.90
2019-01-28T23:59:05.185Z,99.90
